Terminal Aerodrome Forecast
Issued by NWS

Home | Current Version | Previous Version | Graphics & Text | Print | Product List | Glossary On
Versions: 1 2 3 4 5 6 7 8 9 10 11 12 13 14 15
000
FTUS43 KBIS 301848 AAA
TAFDIK
TAF AMD
KDIK 301848Z 3019/3118 16014KT P6SM VCSH BKN120
     FM302100 15015KT P6SM SCT150
     FM311700 16017G24KT P6SM FEW250=

USA.gov is the U.S. government's official web portal to all federal, state and local government web resources and services.